Horning, Denmark
Current Conditions -  °F | °C
As of 3:50 AM on Wednesday 26 Nov 2014 (Local Time) from EKAH Reporting Station
Overcast Overcast  
Wind Chill: 41°   Ceiling: 2200
Heat Index: 41°   Visibility: 6mi
Dew Point: 37°   Wind: 1mph
Humidity: 87%   Direction: 20°NNE
Pressure: 30.3"   Gusts: 25mph
Location:  56.09°N, 10.04°E
Report Text: EKAH 260250Z AUTO 02001G22KT 9000NDV OVC022/// 05/03 Q1026
Loading
Personal Weather Stations






























Interactive Weather Map New forecast layout! Learn more

10-Day Weather Forecast

Advertisements
Track Severe Weather on mobile